Al Rawdah — V7VM8 — position and weather

sailwx.info

Track history (hours):
 
Tides and Currents Weather Stations Pressure Air Temp Water Temp Dewpoint Dewpoint Depression Visibility Wind Speed Wind Dir Waves Ship Positions

Al Rawdah

Last reported at 2017-Aug-11 11:14 UTC. Time now 2017-Aug-23 00:23 UTC.
Position N 30°12' E 032°34'.
Warning: this ship's position is 11 days out of date.

Length 307 m; draft 14.5 m.

Type: Cargo ship. MMSI: 538004160.

Date/timePositionNaut miles runAvg speedWind from/ knotsBaromVisibWave heightAir tempDewpointWater temp
2017-Aug-11 11:14N 30°12' E 032°34'2 8.4
2017-Aug-11 11:00N 30°14' E 032°33'4 8.7
2017-Aug-11 10:30N 30°16' E 032°28'5 9.2
2017-Aug-11 10:00N 30°19' E 032°24'4 8.4
2017-Aug-11 09:29N 30°23' E 032°22'4 8.4
2017-Aug-11 09:00N 30°27' E 032°21'68 2.3
2017-Aug-10 02:42N 31°28' E 031°45'0 2.2
2017-Aug-10 02:30N 31°28' E 031°45'0 0.2
2017-Aug-10 01:56N 31°28' E 031°45'0 0.0
2017-Aug-09 17:20N 31°28' E 031°45'0 0.0
2017-Aug-09 15:08N 31°28' E 031°45'0 0.0
2017-Aug-09 14:14N 31°28' E 031°45'0 0.0
2017-Aug-09 13:59N 31°28' E 031°45'11 1.9
2017-Aug-09 08:05N 31°39' E 031°46'4 5.3
2017-Aug-09 07:23N 31°41' E 031°42'0 0.7
2017-Aug-09 07:00N 31°41' E 031°42'1 0.1
2017-Aug-09 01:25N 31°41' E 031°42'0 0.3
2017-Aug-09 01:00N 31°41' E 031°42'0 0.8
2017-Aug-09 00:30N 31°41' E 031°41'0 0.7
2017-Aug-08 23:56N 31°41' E 031°41'0 0.1
2017-Aug-08 23:30N 31°41' E 031°41'0 0.7
2017-Aug-08 23:00N 31°42' E 031°41'0 0.6
2017-Aug-08 22:30N 31°41' E 031°41'0 0.8
2017-Aug-08 21:58N 31°41' E 031°42'0 0.6
2017-Aug-08 21:29N 31°42' E 031°42'0 0.5
2017-Aug-08 20:57N 31°41' E 031°42'0 0.1
2017-Aug-08 20:30N 31°41' E 031°42'2 4.6
2017-Aug-08 19:59N 31°44' E 031°42'3 6.4
2017-Aug-08 19:29N 31°45' E 031°39'3 6.9
2017-Aug-08 19:00N 31°47' E 031°35'3 6.9
2017-Aug-08 18:30N 31°48' E 031°32'4 7.0
2017-Aug-08 18:00N 31°50' E 031°28'4 6.9
2017-Aug-08 17:28N 31°51' E 031°24'3 6.7
2017-Aug-08 17:00N 31°52' E 031°20'3 6.6
2017-Aug-08 16:30N 31°53' E 031°17'3 6.5
2017-Aug-08 16:00N 31°54' E 031°13'3 6.5
2017-Aug-08 15:30N 31°54' E 031°09'3 6.5
2017-Aug-08 15:00N 31°55' E 031°05'3 6.7
2017-Aug-08 14:30N 31°56' E 031°01'3 6.7
2017-Aug-08 14:00N 31°57' E 030°58'5 6.9
2017-Aug-08 13:12N 31°59' E 030°52'1 6.9
2017-Aug-08 13:00N 31°60' E 030°50'57119.8
2017-Aug-07 08:07N 34°59' E 020°00'220.9
2017-Aug-07 08:00N 34°60' E 019°58'1121.3
2017-Aug-07 07:29N 35°03' E 019°45'1021.3
2017-Aug-07 07:00N 35°07' E 019°33'1121.1
2017-Aug-07 06:30N 35°10' E 019°21'1021.0
2017-Aug-07 06:00N 35°13' E 019°09'1121.1
2017-Aug-07 05:30N 35°17' E 018°56'1121.3
2017-Aug-07 05:00N 35°20' E 018°44'1121.2
2017-Aug-07 04:29N 35°24' E 018°31'1521.1
2017-Aug-07 03:47N 35°29' E 018°14'3721.0
2017-Aug-07 02:02N 35°40' E 017°31'121.1
2017-Aug-07 02:00N 35°40' E 017°30'1021.1
2017-Aug-07 01:30N 35°43' E 017°18'3921.0
2017-Aug-06 23:40N 35°56' E 016°33'520.9
2017-Aug-06 23:26N 35°57' E 016°27'4220.4
2017-Aug-06 21:22N 36°10' E 015°38'720.7
2017-Aug-06 21:00N 36°12' E 015°29'1020.7
2017-Aug-06 20:30N 36°15' E 015°17'1121.1
2017-Aug-06 20:00N 36°19' E 015°04'1121.7
2017-Aug-06 19:30N 36°22' E 014°51'1121.6
2017-Aug-06 19:00N 36°26' E 014°39'1121.5
2017-Aug-06 18:30N 36°31' E 014°27'1121.4
2017-Aug-06 18:00N 36°36' E 014°15'1121.4
2017-Aug-06 17:30N 36°41' E 014°04'1121.4
2017-Aug-06 17:00N 36°47' E 013°52'1121.4
2017-Aug-06 16:30N 36°52' E 013°41'1121.5
2017-Aug-06 16:00N 36°57' E 013°29'1121.6
2017-Aug-06 15:30N 37°02' E 013°17'1121.4
2017-Aug-06 15:00N 37°08' E 013°05'1121.4
2017-Aug-06 14:30N 37°13' E 012°53'2121.0
2017-Aug-06 13:30N 37°22' E 012°30'1020.0
2017-Aug-06 13:00N 37°28' E 012°20'1020.4
2017-Aug-06 12:30N 37°37' E 012°13'815.5
2017-Aug-06 12:00N 37°43' E 012°07'714.1
2017-Aug-06 11:29N 37°49' E 012°02'714.2
2017-Aug-06 11:00N 37°54' E 011°56'714.7
2017-Aug-06 10:30N 38°01' E 011°52'714.7
2017-Aug-06 10:00N 38°08' E 011°49'714.6
2017-Aug-06 09:30N 38°15' E 011°46'714.5
2017-Aug-06 09:00N 38°21' E 011°43'714.7
2017-Aug-06 08:30N 38°28' E 011°40'815.2
2017-Aug-06 08:00N 38°36' E 011°37'815.1
2017-Aug-06 07:30N 38°43' E 011°34'714.8
2017-Aug-06 07:00N 38°50' E 011°31'3417.0
2017-Aug-06 05:00N 39°22' E 011°16'1118.6
2017-Aug-06 04:26N 39°32' E 011°11'9218.3
2017-Aug-05 23:24N 40°58' E 010°29'1718.4
2017-Aug-05 22:30N 41°14' E 010°24'918.6
2017-Aug-05 22:00N 41°23' E 010°19'918.6
2017-Aug-05 21:30N 41°32' E 010°16'918.7
2017-Aug-05 21:00N 41°40' E 010°11'918.6
2017-Aug-05 20:30N 41°49' E 010°07'918.6
2017-Aug-05 20:00N 41°58' E 010°03'918.4
2017-Aug-05 19:30N 42°07' E 009°59'918.4
2017-Aug-05 19:00N 42°16' E 009°55'918.7
2017-Aug-05 18:30N 42°24' E 009°51'1018.9
2017-Aug-05 18:00N 42°33' E 009°47'918.9
2017-Aug-05 17:30N 42°42' E 009°42'918.6
2017-Aug-05 17:00N 42°51' E 009°38'918.2
2017-Aug-05 16:30N 42°60' E 009°36'918.2
2017-Aug-05 16:00N 43°09' E 009°32'918.7
2017-Aug-05 15:30N 43°17' E 009°28'918.3
2017-Aug-05 15:00N 43°26' E 009°24'918.0
2017-Aug-05 14:30N 43°35' E 009°20'917.9
2017-Aug-05 14:00N 43°43' E 009°16'918.0
2017-Aug-05 13:30N 43°52' E 009°12'918.0
2017-Aug-05 13:00N 43°60' E 009°07'918.2
2017-Aug-05 12:30N 44°08' E 009°03'918.2
2017-Aug-05 12:00N 44°17' E 008°59'612.9
2017-Aug-05 11:30N 44°23' E 008°56'2 3.0
2017-Aug-05 11:00N 44°24' E 008°55'0 0.0
2017-Aug-05 10:30N 44°24' E 008°55'0 0.0
2017-Aug-05 10:00N 44°24' E 008°55'0 0.0
2017-Aug-05 09:27N 44°24' E 008°55'0 0.0
2017-Aug-05 08:57N 44°24' E 008°55'0 0.0
2017-Aug-05 08:27N 44°24' E 008°55'0 0.0
2017-Aug-05 07:57N 44°24' E 008°55'0 0.0
2017-Aug-05 07:30N 44°24' E 008°55'0 0.0
2017-Aug-05 06:57N 44°24' E 008°55'0 0.0
2017-Aug-05 06:27N 44°24' E 008°55'0 0.0
2017-Aug-05 06:00N 44°24' E 008°55'0 0.0
2017-Aug-05 05:30N 44°24' E 008°55'0 0.0
2017-Aug-05 04:57N 44°24' E 008°55'0 0.0
2017-Aug-05 04:30N 44°24' E 008°55'0 0.0
2017-Aug-05 04:00N 44°24' E 008°55'0 0.0
2017-Aug-05 03:30N 44°24' E 008°55'0 0.0
2017-Aug-05 03:00N 44°24' E 008°55'0 0.0
2017-Aug-05 02:30N 44°24' E 008°55'0 0.0
2017-Aug-05 02:00N 44°24' E 008°55'0 0.0
2017-Aug-05 01:30N 44°24' E 008°55'0 0.0
2017-Aug-05 00:57N 44°24' E 008°55'0 0.0
2017-Aug-05 00:30N 44°24' E 008°55'0 0.0
2017-Aug-05 00:00N 44°24' E 008°55'0 0.0
2017-Aug-04 23:21N 44°24' E 008°55'0 0.0
2017-Aug-04 22:57N 44°24' E 008°55'0 0.0
2017-Aug-04 22:30N 44°24' E 008°55'0 0.0
2017-Aug-04 21:57N 44°24' E 008°55'0 0.0
2017-Aug-04 21:30N 44°24' E 008°55'0 0.0
2017-Aug-04 21:00N 44°24' E 008°55'0 0.0
2017-Aug-04 20:30N 44°24' E 008°55'0 0.0
2017-Aug-04 19:57N 44°24' E 008°55'0 0.0
2017-Aug-04 19:30N 44°24' E 008°55'0 0.0
2017-Aug-04 19:00N 44°24' E 008°55'0 0.0
2017-Aug-04 18:30N 44°24' E 008°55'0 0.0
2017-Aug-04 17:57N 44°24' E 008°55'0 0.0
2017-Aug-04 17:30N 44°24' E 008°55'0 0.0
2017-Aug-04 16:57N 44°24' E 008°55'0 0.0
2017-Aug-04 16:30N 44°24' E 008°55'0 0.0
2017-Aug-04 16:00N 44°24' E 008°55'0 0.0
2017-Aug-04 15:30N 44°24' E 008°55'0 0.0
2017-Aug-04 15:00N 44°24' E 008°55'0 0.0
2017-Aug-04 14:00N 44°24' E 008°55'1 1.3
2017-Aug-04 13:31N 44°24' E 008°55'3 5.8
2017-Aug-04 13:01N 44°22' E 008°58'3 5.3
2017-Aug-04 12:31N 44°19' E 008°59'4 7.1
2017-Aug-04 12:01N 44°16' E 008°55'714.5
2017-Aug-04 11:31N 44°12' E 008°47'1020.5
2017-Aug-04 11:01N 44°06' E 008°36'1020.3
2017-Aug-04 10:31N 43°59' E 008°25'1019.1
2017-Aug-04 10:01N 43°53' E 008°15'918.0
2017-Aug-04 09:31N 43°47' E 008°06'918.0
2017-Aug-04 09:01N 43°41' E 007°57'918.1
2017-Aug-04 08:30N 43°35' E 007°47'918.1
2017-Aug-04 08:00N 43°28' E 007°38'918.3
2017-Aug-04 07:31N 43°22' E 007°29'918.4
2017-Aug-04 07:01N 43°16' E 007°20'918.3
2017-Aug-04 06:31N 43°10' E 007°11'918.3
2017-Aug-04 06:01N 43°04' E 007°01'918.1
2017-Aug-04 05:30N 42°58' E 006°52'816.8
2017-Aug-04 05:01N 42°52' E 006°43'2 3.3
2017-Aug-04 04:30N 42°52' E 006°41'1 2.3
2017-Aug-04 04:01N 42°53' E 006°41'714.7
2017-Aug-04 03:30N 42°52' E 006°30'715.0
2017-Aug-04 03:00N 42°49' E 006°21'815.6
2017-Aug-04 02:30N 42°49' E 006°10'815.4
2017-Aug-04 02:01N 42°50' E 005°60'815.5
2017-Aug-04 01:30N 42°50' E 005°49'714.7
2017-Aug-04 01:00N 42°53' E 005°40'1815.7
2017-Aug-03 23:52N 43°02' E 005°20'1214.6
2017-Aug-03 23:02N 43°09' E 005°06'211.9
2017-Aug-03 22:54N 43°10' E 005°04'611.2
2017-Aug-03 22:21N 43°15' E 004°60'412.3
2017-Aug-03 22:00N 43°20' E 004°58'5 9.7
2017-Aug-03 21:30N 43°24' E 004°55'3 5.7
2017-Aug-03 20:56N 43°25' E 004°51'0 0.0
2017-Aug-03 20:28N 43°25' E 004°51'0 0.0
2017-Aug-03 19:55N 43°25' E 004°51'0 0.0
2017-Aug-03 18:31N 43°25' E 004°51'0 0.2
2017-Aug-03 18:28N 43°25' E 004°51'0 0.0
2017-Aug-03 17:58N 43°25' E 004°51'0 0.0
2017-Aug-03 16:43N 43°25' E 004°51'0 0.0
2017-Aug-03 16:28N 43°25' E 004°51'0 0.0
2017-Aug-03 15:58N 43°25' E 004°51'0 0.0
2017-Aug-03 15:22N 43°25' E 004°51'0 0.0
2017-Aug-03 14:46N 43°25' E 004°51'0 0.0
2017-Aug-03 13:46N 43°25' E 004°51'0 0.0
2017-Aug-03 13:28N 43°25' E 004°51'0 0.0
2017-Aug-03 12:58N 43°25' E 004°51'0 0.0
2017-Aug-03 12:28N 43°25' E 004°51'0 0.0
2017-Aug-03 11:55N 43°25' E 004°51'0 0.0
2017-Aug-03 11:28N 43°25' E 004°51'0 0.0
2017-Aug-03 10:58N 43°25' E 004°51'0 0.0
2017-Aug-03 10:28N 43°25' E 004°51'0 0.0
2017-Aug-03 09:58N 43°25' E 004°51'0 0.0
2017-Aug-03 09:28N 43°25' E 004°51'0 0.0
2017-Aug-03 08:58N 43°25' E 004°51'0 0.0
2017-Aug-03 08:28N 43°25' E 004°51'0 0.0
2017-Aug-03 07:58N 43°25' E 004°51'0 0.0
2017-Aug-03 07:28N 43°25' E 004°51'0 0.0
2017-Aug-03 06:58N 43°25' E 004°51'0 0.0
2017-Aug-03 06:28N 43°25' E 004°51'0 0.0
2017-Aug-03 05:58N 43°25' E 004°51'0 0.0
2017-Aug-03 05:28N 43°25' E 004°51'0 0.0
2017-Aug-03 04:58N 43°25' E 004°51'0 0.0
2017-Aug-03 04:28N 43°25' E 004°51'0 0.0
2017-Aug-03 03:58N 43°25' E 004°51'0 0.0
2017-Aug-03 03:25N 43°25' E 004°51'0 0.0
2017-Aug-03 02:58N 43°25' E 004°51'0 0.0
2017-Aug-03 02:25N 43°25' E 004°51'0 0.0
2017-Aug-03 01:55N 43°25' E 004°51'0 0.0
2017-Aug-03 01:25N 43°25' E 004°51'0 0.0
2017-Aug-03 00:55N 43°25' E 004°51'0 0.0
2017-Aug-03 00:28N 43°25' E 004°51'0 0.0
2017-Aug-02 23:58N 43°25' E 004°51'0 0.0
2017-Aug-02 23:28N 43°25' E 004°51'0 0.0
2017-Aug-02 22:58N 43°25' E 004°51'0 0.0
2017-Aug-02 22:28N 43°25' E 004°51'0 0.0
2017-Aug-02 21:58N 43°25' E 004°51'0 0.0
2017-Aug-02 21:28N 43°25' E 004°51'0 0.0
2017-Aug-02 20:58N 43°25' E 004°51'0 0.0
2017-Aug-02 20:28N 43°25' E 004°51'0 0.0
2017-Aug-02 19:58N 43°25' E 004°51'0 0.0
2017-Aug-02 19:28N 43°25' E 004°51'0 0.0
2017-Aug-02 18:58N 43°25' E 004°51'0 0.0
2017-Aug-02 18:28N 43°25' E 004°51'0 0.0
2017-Aug-02 17:58N 43°25' E 004°51'0 0.0
2017-Aug-02 17:28N 43°25' E 004°51'0 0.0
2017-Aug-02 16:58N 43°25' E 004°51'0 0.0
2017-Aug-02 16:28N 43°25' E 004°51'0 0.0
2017-Aug-02 15:58N 43°25' E 004°51'0 0.0
2017-Aug-02 15:28N 43°25' E 004°51'0 0.0
2017-Aug-02 14:58N 43°25' E 004°51'0 0.0
2017-Aug-02 13:28N 43°25' E 004°51'0 0.0
2017-Aug-02 12:58N 43°25' E 004°51'0 0.0
2017-Aug-02 12:28N 43°25' E 004°51'0 0.0
2017-Aug-02 11:58N 43°25' E 004°51'0 0.0
2017-Aug-02 11:28N 43°25' E 004°51'0 0.0
2017-Aug-02 10:58N 43°25' E 004°51'0 0.0
2017-Aug-02 10:28N 43°25' E 004°51'0 0.0
2017-Aug-02 09:58N 43°25' E 004°51'0 0.0
2017-Aug-02 09:28N 43°25' E 004°51'0 0.0
2017-Aug-02 08:58N 43°25' E 004°51'0 0.0
2017-Aug-02 08:28N 43°25' E 004°51'0 0.0
2017-Aug-02 07:58N 43°25' E 004°51'0 0.0
2017-Aug-02 07:28N 43°25' E 004°51'0 0.0
2017-Aug-02 06:58N 43°25' E 004°51'0 0.0
2017-Aug-02 06:28N 43°25' E 004°51'0 0.0
2017-Aug-02 05:58N 43°25' E 004°51'0 0.0
2017-Aug-02 05:28N 43°25' E 004°51'0 0.0
2017-Aug-02 04:58N 43°25' E 004°51'0 0.0
2017-Aug-02 04:28N 43°25' E 004°51'0 0.0
2017-Aug-02 03:58N 43°25' E 004°51'0 0.0
2017-Aug-02 03:28N 43°25' E 004°51'0 0.0
2017-Aug-02 02:58N 43°25' E 004°51'0 0.0
2017-Aug-02 02:28N 43°25' E 004°51'0 0.0
2017-Aug-02 01:58N 43°25' E 004°51'  
Track history (hours):
 
Tides and Currents Weather Stations Pressure Air Temp Water Temp Dewpoint Dewpoint Depression Visibility Wind Speed Wind Dir Waves Ship Positions

Al Rawdah

Last reported at 2017-Aug-11 11:14 UTC. Time now 2017-Aug-23 00:23 UTC.
Position N 30°12' E 032°34'.
Warning: this ship's position is 11 days out of date.

Length 307 m; draft 14.5 m.

Type: Cargo ship. MMSI: 538004160.

Date/timePositionNaut miles runAvg speedWind from/ knotsBaromVisibWave heightAir tempDewpointWater temp
2017-Aug-11 11:14N 30°12' E 032°34'2 8.4
2017-Aug-11 11:00N 30°14' E 032°33'4 8.7
2017-Aug-11 10:30N 30°16' E 032°28'5 9.2
2017-Aug-11 10:00N 30°19' E 032°24'4 8.4
2017-Aug-11 09:29N 30°23' E 032°22'4 8.4
2017-Aug-11 09:00N 30°27' E 032°21'68 2.3
2017-Aug-10 02:42N 31°28' E 031°45'0 2.2
2017-Aug-10 02:30N 31°28' E 031°45'0 0.2
2017-Aug-10 01:56N 31°28' E 031°45'0 0.0
2017-Aug-09 17:20N 31°28' E 031°45'0 0.0
2017-Aug-09 15:08N 31°28' E 031°45'0 0.0
2017-Aug-09 14:14N 31°28' E 031°45'0 0.0
2017-Aug-09 13:59N 31°28' E 031°45'11 1.9
2017-Aug-09 08:05N 31°39' E 031°46'4 5.3
2017-Aug-09 07:23N 31°41' E 031°42'0 0.7
2017-Aug-09 07:00N 31°41' E 031°42'1 0.1
2017-Aug-09 01:25N 31°41' E 031°42'0 0.3
2017-Aug-09 01:00N 31°41' E 031°42'0 0.8
2017-Aug-09 00:30N 31°41' E 031°41'0 0.7
2017-Aug-08 23:56N 31°41' E 031°41'0 0.1
2017-Aug-08 23:30N 31°41' E 031°41'0 0.7
2017-Aug-08 23:00N 31°42' E 031°41'0 0.6
2017-Aug-08 22:30N 31°41' E 031°41'0 0.8
2017-Aug-08 21:58N 31°41' E 031°42'0 0.6
2017-Aug-08 21:29N 31°42' E 031°42'0 0.5
2017-Aug-08 20:57N 31°41' E 031°42'0 0.1
2017-Aug-08 20:30N 31°41' E 031°42'2 4.6
2017-Aug-08 19:59N 31°44' E 031°42'3 6.4
2017-Aug-08 19:29N 31°45' E 031°39'3 6.9
2017-Aug-08 19:00N 31°47' E 031°35'3 6.9
2017-Aug-08 18:30N 31°48' E 031°32'4 7.0
2017-Aug-08 18:00N 31°50' E 031°28'4 6.9
2017-Aug-08 17:28N 31°51' E 031°24'3 6.7
2017-Aug-08 17:00N 31°52' E 031°20'3 6.6
2017-Aug-08 16:30N 31°53' E 031°17'3 6.5
2017-Aug-08 16:00N 31°54' E 031°13'3 6.5
2017-Aug-08 15:30N 31°54' E 031°09'3 6.5
2017-Aug-08 15:00N 31°55' E 031°05'3 6.7
2017-Aug-08 14:30N 31°56' E 031°01'3 6.7
2017-Aug-08 14:00N 31°57' E 030°58'5 6.9
2017-Aug-08 13:12N 31°59' E 030°52'1 6.9
2017-Aug-08 13:00N 31°60' E 030°50'57119.8
2017-Aug-07 08:07N 34°59' E 020°00'220.9
2017-Aug-07 08:00N 34°60' E 019°58'1121.3
2017-Aug-07 07:29N 35°03' E 019°45'1021.3
2017-Aug-07 07:00N 35°07' E 019°33'1121.1
2017-Aug-07 06:30N 35°10' E 019°21'1021.0
2017-Aug-07 06:00N 35°13' E 019°09'1121.1
2017-Aug-07 05:30N 35°17' E 018°56'1121.3
2017-Aug-07 05:00N 35°20' E 018°44'1121.2
2017-Aug-07 04:29N 35°24' E 018°31'1521.1
2017-Aug-07 03:47N 35°29' E 018°14'3721.0
2017-Aug-07 02:02N 35°40' E 017°31'121.1
2017-Aug-07 02:00N 35°40' E 017°30'1021.1
2017-Aug-07 01:30N 35°43' E 017°18'3921.0
2017-Aug-06 23:40N 35°56' E 016°33'520.9
2017-Aug-06 23:26N 35°57' E 016°27'4220.4
2017-Aug-06 21:22N 36°10' E 015°38'720.7
2017-Aug-06 21:00N 36°12' E 015°29'1020.7
2017-Aug-06 20:30N 36°15' E 015°17'1121.1
2017-Aug-06 20:00N 36°19' E 015°04'1121.7
2017-Aug-06 19:30N 36°22' E 014°51'1121.6
2017-Aug-06 19:00N 36°26' E 014°39'1121.5
2017-Aug-06 18:30N 36°31' E 014°27'1121.4
2017-Aug-06 18:00N 36°36' E 014°15'1121.4
2017-Aug-06 17:30N 36°41' E 014°04'1121.4
2017-Aug-06 17:00N 36°47' E 013°52'1121.4
2017-Aug-06 16:30N 36°52' E 013°41'1121.5
2017-Aug-06 16:00N 36°57' E 013°29'1121.6
2017-Aug-06 15:30N 37°02' E 013°17'1121.4
2017-Aug-06 15:00N 37°08' E 013°05'1121.4
2017-Aug-06 14:30N 37°13' E 012°53'2121.0
2017-Aug-06 13:30N 37°22' E 012°30'1020.0
2017-Aug-06 13:00N 37°28' E 012°20'1020.4
2017-Aug-06 12:30N 37°37' E 012°13'815.5
2017-Aug-06 12:00N 37°43' E 012°07'714.1
2017-Aug-06 11:29N 37°49' E 012°02'714.2
2017-Aug-06 11:00N 37°54' E 011°56'714.7
2017-Aug-06 10:30N 38°01' E 011°52'714.7
2017-Aug-06 10:00N 38°08' E 011°49'714.6
2017-Aug-06 09:30N 38°15' E 011°46'714.5
2017-Aug-06 09:00N 38°21' E 011°43'714.7
2017-Aug-06 08:30N 38°28' E 011°40'815.2
2017-Aug-06 08:00N 38°36' E 011°37'815.1
2017-Aug-06 07:30N 38°43' E 011°34'714.8
2017-Aug-06 07:00N 38°50' E 011°31'3417.0
2017-Aug-06 05:00N 39°22' E 011°16'1118.6
2017-Aug-06 04:26N 39°32' E 011°11'9218.3
2017-Aug-05 23:24N 40°58' E 010°29'1718.4
2017-Aug-05 22:30N 41°14' E 010°24'918.6
2017-Aug-05 22:00N 41°23' E 010°19'918.6
2017-Aug-05 21:30N 41°32' E 010°16'918.7
2017-Aug-05 21:00N 41°40' E 010°11'918.6
2017-Aug-05 20:30N 41°49' E 010°07'918.6
2017-Aug-05 20:00N 41°58' E 010°03'918.4
2017-Aug-05 19:30N 42°07' E 009°59'918.4
2017-Aug-05 19:00N 42°16' E 009°55'918.7
2017-Aug-05 18:30N 42°24' E 009°51'1018.9
2017-Aug-05 18:00N 42°33' E 009°47'918.9
2017-Aug-05 17:30N 42°42' E 009°42'918.6
2017-Aug-05 17:00N 42°51' E 009°38'918.2
2017-Aug-05 16:30N 42°60' E 009°36'918.2
2017-Aug-05 16:00N 43°09' E 009°32'918.7
2017-Aug-05 15:30N 43°17' E 009°28'918.3
2017-Aug-05 15:00N 43°26' E 009°24'918.0
2017-Aug-05 14:30N 43°35' E 009°20'917.9
2017-Aug-05 14:00N 43°43' E 009°16'918.0
2017-Aug-05 13:30N 43°52' E 009°12'918.0
2017-Aug-05 13:00N 43°60' E 009°07'918.2
2017-Aug-05 12:30N 44°08' E 009°03'918.2
2017-Aug-05 12:00N 44°17' E 008°59'612.9
2017-Aug-05 11:30N 44°23' E 008°56'2 3.0
2017-Aug-05 11:00N 44°24' E 008°55'0 0.0
2017-Aug-05 10:30N 44°24' E 008°55'0 0.0
2017-Aug-05 10:00N 44°24' E 008°55'0 0.0
2017-Aug-05 09:27N 44°24' E 008°55'0 0.0
2017-Aug-05 08:57N 44°24' E 008°55'0 0.0
2017-Aug-05 08:27N 44°24' E 008°55'0 0.0
2017-Aug-05 07:57N 44°24' E 008°55'0 0.0
2017-Aug-05 07:30N 44°24' E 008°55'0 0.0
2017-Aug-05 06:57N 44°24' E 008°55'0 0.0
2017-Aug-05 06:27N 44°24' E 008°55'0 0.0
2017-Aug-05 06:00N 44°24' E 008°55'0 0.0
2017-Aug-05 05:30N 44°24' E 008°55'0 0.0
2017-Aug-05 04:57N 44°24' E 008°55'0 0.0
2017-Aug-05 04:30N 44°24' E 008°55'0 0.0
2017-Aug-05 04:00N 44°24' E 008°55'0 0.0
2017-Aug-05 03:30N 44°24' E 008°55'0 0.0
2017-Aug-05 03:00N 44°24' E 008°55'0 0.0
2017-Aug-05 02:30N 44°24' E 008°55'0 0.0
2017-Aug-05 02:00N 44°24' E 008°55'0 0.0
2017-Aug-05 01:30N 44°24' E 008°55'0 0.0
2017-Aug-05 00:57N 44°24' E 008°55'0 0.0
2017-Aug-05 00:30N 44°24' E 008°55'0 0.0
2017-Aug-05 00:00N 44°24' E 008°55'0 0.0
2017-Aug-04 23:21N 44°24' E 008°55'0 0.0
2017-Aug-04 22:57N 44°24' E 008°55'0 0.0
2017-Aug-04 22:30N 44°24' E 008°55'0 0.0
2017-Aug-04 21:57N 44°24' E 008°55'0 0.0
2017-Aug-04 21:30N 44°24' E 008°55'0 0.0
2017-Aug-04 21:00N 44°24' E 008°55'0 0.0
2017-Aug-04 20:30N 44°24' E 008°55'0 0.0
2017-Aug-04 19:57N 44°24' E 008°55'0 0.0
2017-Aug-04 19:30N 44°24' E 008°55'0 0.0
2017-Aug-04 19:00N 44°24' E 008°55'0 0.0
2017-Aug-04 18:30N 44°24' E 008°55'0 0.0
2017-Aug-04 17:57N 44°24' E 008°55'0 0.0
2017-Aug-04 17:30N 44°24' E 008°55'0 0.0
2017-Aug-04 16:57N 44°24' E 008°55'0 0.0
2017-Aug-04 16:30N 44°24' E 008°55'0 0.0
2017-Aug-04 16:00N 44°24' E 008°55'0 0.0
2017-Aug-04 15:30N 44°24' E 008°55'0 0.0
2017-Aug-04 15:00N 44°24' E 008°55'0 0.0
2017-Aug-04 14:00N 44°24' E 008°55'1 1.3
2017-Aug-04 13:31N 44°24' E 008°55'3 5.8
2017-Aug-04 13:01N 44°22' E 008°58'3 5.3
2017-Aug-04 12:31N 44°19' E 008°59'4 7.1
2017-Aug-04 12:01N 44°16' E 008°55'714.5
2017-Aug-04 11:31N 44°12' E 008°47'1020.5
2017-Aug-04 11:01N 44°06' E 008°36'1020.3
2017-Aug-04 10:31N 43°59' E 008°25'1019.1
2017-Aug-04 10:01N 43°53' E 008°15'918.0
2017-Aug-04 09:31N 43°47' E 008°06'918.0
2017-Aug-04 09:01N 43°41' E 007°57'918.1
2017-Aug-04 08:30N 43°35' E 007°47'918.1
2017-Aug-04 08:00N 43°28' E 007°38'918.3
2017-Aug-04 07:31N 43°22' E 007°29'918.4
2017-Aug-04 07:01N 43°16' E 007°20'918.3
2017-Aug-04 06:31N 43°10' E 007°11'918.3
2017-Aug-04 06:01N 43°04' E 007°01'918.1
2017-Aug-04 05:30N 42°58' E 006°52'816.8
2017-Aug-04 05:01N 42°52' E 006°43'2 3.3
2017-Aug-04 04:30N 42°52' E 006°41'1 2.3
2017-Aug-04 04:01N 42°53' E 006°41'714.7
2017-Aug-04 03:30N 42°52' E 006°30'715.0
2017-Aug-04 03:00N 42°49' E 006°21'815.6
2017-Aug-04 02:30N 42°49' E 006°10'815.4
2017-Aug-04 02:01N 42°50' E 005°60'815.5
2017-Aug-04 01:30N 42°50' E 005°49'714.7
2017-Aug-04 01:00N 42°53' E 005°40'1815.7
2017-Aug-03 23:52N 43°02' E 005°20'1214.6
2017-Aug-03 23:02N 43°09' E 005°06'211.9
2017-Aug-03 22:54N 43°10' E 005°04'611.2
2017-Aug-03 22:21N 43°15' E 004°60'412.3
2017-Aug-03 22:00N 43°20' E 004°58'5 9.7
2017-Aug-03 21:30N 43°24' E 004°55'3 5.7
2017-Aug-03 20:56N 43°25' E 004°51'0 0.0
2017-Aug-03 20:28N 43°25' E 004°51'0 0.0
2017-Aug-03 19:55N 43°25' E 004°51'0 0.0
2017-Aug-03 18:31N 43°25' E 004°51'0 0.2
2017-Aug-03 18:28N 43°25' E 004°51'0 0.0
2017-Aug-03 17:58N 43°25' E 004°51'0 0.0
2017-Aug-03 16:43N 43°25' E 004°51'0 0.0
2017-Aug-03 16:28N 43°25' E 004°51'0 0.0
2017-Aug-03 15:58N 43°25' E 004°51'0 0.0
2017-Aug-03 15:22N 43°25' E 004°51'0 0.0
2017-Aug-03 14:46N 43°25' E 004°51'0 0.0
2017-Aug-03 13:46N 43°25' E 004°51'0 0.0
2017-Aug-03 13:28N 43°25' E 004°51'0 0.0
2017-Aug-03 12:58N 43°25' E 004°51'0 0.0
2017-Aug-03 12:28N 43°25' E 004°51'0 0.0
2017-Aug-03 11:55N 43°25' E 004°51'0 0.0
2017-Aug-03 11:28N 43°25' E 004°51'0 0.0
2017-Aug-03 10:58N 43°25' E 004°51'0 0.0
2017-Aug-03 10:28N 43°25' E 004°51'0 0.0
2017-Aug-03 09:58N 43°25' E 004°51'0 0.0
2017-Aug-03 09:28N 43°25' E 004°51'0 0.0
2017-Aug-03 08:58N 43°25' E 004°51'0 0.0
2017-Aug-03 08:28N 43°25' E 004°51'0 0.0
2017-Aug-03 07:58N 43°25' E 004°51'0 0.0
2017-Aug-03 07:28N 43°25' E 004°51'0 0.0
2017-Aug-03 06:58N 43°25' E 004°51'0 0.0
2017-Aug-03 06:28N 43°25' E 004°51'0 0.0
2017-Aug-03 05:58N 43°25' E 004°51'0 0.0
2017-Aug-03 05:28N 43°25' E 004°51'0 0.0
2017-Aug-03 04:58N 43°25' E 004°51'0 0.0
2017-Aug-03 04:28N 43°25' E 004°51'0 0.0
2017-Aug-03 03:58N 43°25' E 004°51'0 0.0
2017-Aug-03 03:25N 43°25' E 004°51'0 0.0
2017-Aug-03 02:58N 43°25' E 004°51'0 0.0
2017-Aug-03 02:25N 43°25' E 004°51'0 0.0
2017-Aug-03 01:55N 43°25' E 004°51'0 0.0
2017-Aug-03 01:25N 43°25' E 004°51'0 0.0
2017-Aug-03 00:55N 43°25' E 004°51'0 0.0
2017-Aug-03 00:28N 43°25' E 004°51'0 0.0
2017-Aug-02 23:58N 43°25' E 004°51'0 0.0
2017-Aug-02 23:28N 43°25' E 004°51'0 0.0
2017-Aug-02 22:58N 43°25' E 004°51'0 0.0
2017-Aug-02 22:28N 43°25' E 004°51'0 0.0
2017-Aug-02 21:58N 43°25' E 004°51'0 0.0
2017-Aug-02 21:28N 43°25' E 004°51'0 0.0
2017-Aug-02 20:58N 43°25' E 004°51'0 0.0
2017-Aug-02 20:28N 43°25' E 004°51'0 0.0
2017-Aug-02 19:58N 43°25' E 004°51'0 0.0
2017-Aug-02 19:28N 43°25' E 004°51'0 0.0
2017-Aug-02 18:58N 43°25' E 004°51'0 0.0
2017-Aug-02 18:28N 43°25' E 004°51'0 0.0
2017-Aug-02 17:58N 43°25' E 004°51'0 0.0
2017-Aug-02 17:28N 43°25' E 004°51'0 0.0
2017-Aug-02 16:58N 43°25' E 004°51'0 0.0
2017-Aug-02 16:28N 43°25' E 004°51'0 0.0
2017-Aug-02 15:58N 43°25' E 004°51'0 0.0
2017-Aug-02 15:28N 43°25' E 004°51'0 0.0
2017-Aug-02 14:58N 43°25' E 004°51'0 0.0
2017-Aug-02 13:28N 43°25' E 004°51'0 0.0
2017-Aug-02 12:58N 43°25' E 004°51'0 0.0
2017-Aug-02 12:28N 43°25' E 004°51'0 0.0
2017-Aug-02 11:58N 43°25' E 004°51'0 0.0
2017-Aug-02 11:28N 43°25' E 004°51'0 0.0
2017-Aug-02 10:58N 43°25' E 004°51'0 0.0
2017-Aug-02 10:28N 43°25' E 004°51'0 0.0
2017-Aug-02 09:58N 43°25' E 004°51'0 0.0
2017-Aug-02 09:28N 43°25' E 004°51'0 0.0
2017-Aug-02 08:58N 43°25' E 004°51'0 0.0
2017-Aug-02 08:28N 43°25' E 004°51'0 0.0
2017-Aug-02 07:58N 43°25' E 004°51'0 0.0
2017-Aug-02 07:28N 43°25' E 004°51'0 0.0
2017-Aug-02 06:58N 43°25' E 004°51'0 0.0
2017-Aug-02 06:28N 43°25' E 004°51'0 0.0
2017-Aug-02 05:58N 43°25' E 004°51'0 0.0
2017-Aug-02 05:28N 43°25' E 004°51'0 0.0
2017-Aug-02 04:58N 43°25' E 004°51'0 0.0
2017-Aug-02 04:28N 43°25' E 004°51'0 0.0
2017-Aug-02 03:58N 43°25' E 004°51'0 0.0
2017-Aug-02 03:28N 43°25' E 004°51'0 0.0
2017-Aug-02 02:58N 43°25' E 004°51'0 0.0
2017-Aug-02 02:28N 43°25' E 004°51'0 0.0
2017-Aug-02 01:58N 43°25' E 004°51'  

Dump ship's entire track history